Chassell, Michigan
Current Conditions -  °F | °C
As of 10:53 PM on Sunday 23 Nov 2014 (Local Time) from KCMX Reporting Station
Moderate Fog Moderate Fog  
Wind Chill: 37°   Ceiling: 700
Heat Index: 40°   Visibility: 0.25mi
Dew Point: 38°   Wind: 5mph
Humidity: 93%   Direction: 70°ENE
Pressure: 29.27"   Gusts: NA
Location:  47.03°N, 88.53°W
Report Text: KCMX 240353Z AUTO 07004KT 1/4SM FG VV007 04/03 A2927 RMK AO2 RAE0254B13E46 SLP919 P0001 T00440033
Loading
Personal Weather Stations






























Interactive Weather Map New forecast layout! Learn more

10-Day Weather Forecast

Advertisements
Track Severe Weather on mobile